Time;durP1;ratioP1;P1;durP2;ratioP2;P2;SDS_P1;SDS_P2;PMS_P1;PMS_P2;Temp;Humidity;BMP_temperature;BMP_pressure;BME280_temperature;BME280_humidity;BME280_pressure;Samples;Min_cycle;Max_cycle;Signal;HPM_P1;HPM_P2
2022/12/16 00:01:52;;;;;;;61.83;30.63;;;0.20;99.90;;;;;;5018864;28;20244;-82
2022/12/16 00:04:18;;;;;;;56.78;29.60;;;0.30;99.90;;;;;;5017887;28;20255;-78
2022/12/16 00:06:43;;;;;;;63.75;31.70;;;0.10;99.90;;;;;;5016436;28;20178;-78
2022/12/16 00:09:09;;;;;;;60.85;30.25;;;0.20;99.90;;;;;;5016792;28;20172;-78
2022/12/16 00:11:34;;;;;;;66.72;30.42;;;0.40;99.90;;;;;;5019394;28;20717;-80
2022/12/16 00:14:00;;;;;;;51.38;27.70;;;0.70;99.90;;;;;;5015467;28;20203;-79
2022/12/16 00:16:26;;;;;;;52.95;31.02;;;0.80;99.90;;;;;;5015341;28;20246;-79
2022/12/16 00:18:51;;;;;;;53.10;29.38;;;0.70;99.90;;;;;;5015940;28;20247;-80
2022/12/16 00:21:17;;;;;;;52.30;28.85;;;0.70;99.90;;;;;;5017222;28;21040;-78
2022/12/16 00:23:43;;;;;;;56.03;28.25;;;0.90;99.90;;;;;;5016719;28;20180;-78
2022/12/16 00:26:10;;;;;;;54.97;28.95;;;1.10;99.90;;;;;;4999273;28;20193;-80
2022/12/16 00:28:37;;;;;;;61.45;28.17;;;1.10;99.90;;;;;;5022117;28;20157;-78
2022/12/16 00:31:03;;;;;;;50.50;27.30;;;1.10;99.90;;;;;;5024166;28;20335;-79
2022/12/16 00:33:29;;;;;;;53.70;28.48;;;1.20;99.90;;;;;;5026202;28;20536;-77
2022/12/16 00:35:55;;;;;;;53.00;27.40;;;1.10;99.90;;;;;;5023855;28;20259;-78
2022/12/16 00:38:23;;;;;;;53.90;26.02;;;1.10;99.90;;;;;;5022547;28;20184;-78
2022/12/16 00:40:48;;;;;;;48.70;27.30;;;1.10;99.90;;;;;;5018477;28;20176;-80
2022/12/16 00:43:17;;;;;;;55.60;27.83;;;1.10;99.90;;;;;;5026039;28;20192;-79
2022/12/16 00:45:45;;;;;;;55.90;25.98;;;1.20;99.90;;;;;;5022848;28;20195;-78
2022/12/16 00:48:10;;;;;;;58.50;29.00;;;1.30;99.90;;;;;;5017568;28;20156;-77
2022/12/16 00:50:36;;;;;;;51.85;27.05;;;1.50;99.90;;;;;;5018075;28;20204;-78
2022/12/16 00:53:02;;;;;;;44.08;25.98;;;1.40;99.90;;;;;;5016532;28;20272;-82
2022/12/16 00:55:28;;;;;;;47.50;25.83;;;1.30;99.90;;;;;;5020216;28;20165;-86
2022/12/16 00:57:53;;;;;;;55.88;25.88;;;1.30;99.90;;;;;;5019818;28;20164;-78
2022/12/16 01:00:21;;;;;;;46.42;26.10;;;1.50;99.90;;;;;;5020148;28;20179;-79
2022/12/16 01:02:47;;;;;;;44.63;25.98;;;1.50;99.90;;;;;;5019908;28;20653;-78
2022/12/16 01:05:14;;;;;;;52.05;24.05;;;1.50;99.90;;;;;;5030150;28;20184;-79
2022/12/16 01:07:40;;;;;;;53.97;26.65;;;1.60;99.90;;;;;;5029692;28;20188;-79
2022/12/16 01:10:08;;;;;;;48.28;25.17;;;1.60;99.90;;;;;;5022192;28;20219;-81
2022/12/16 01:12:34;;;;;;;43.67;24.10;;;1.70;99.90;;;;;;5021254;28;20198;-81
2022/12/16 01:15:00;;;;;;;41.97;23.63;;;1.50;99.90;;;;;;5020147;28;20528;-80
2022/12/16 01:17:26;;;;;;;44.22;22.83;;;1.30;99.90;;;;;;5022335;28;20177;-77
2022/12/16 01:19:53;;;;;;;56.40;26.00;;;1.30;99.90;;;;;;5020982;28;20176;-78
2022/12/16 01:22:20;;;;;;;47.35;24.77;;;1.40;99.90;;;;;;5021972;28;20250;-84
2022/12/16 01:24:46;;;;;;;44.35;23.17;;;1.60;99.90;;;;;;5023016;28;20537;-77
2022/12/16 01:27:12;;;;;;;44.78;22.80;;;1.60;99.90;;;;;;5024183;28;20173;-81
2022/12/16 01:29:38;;;;;;;50.38;23.55;;;1.80;99.90;;;;;;5029738;28;20184;-86
2022/12/16 01:32:14;;;;;;;42.03;22.95;;;2.10;99.90;;;;;;5030361;28;20208;-81
2022/12/16 01:34:41;;;;;;;50.10;24.63;;;2.20;99.90;;;;;;5025133;28;20164;-85
2022/12/16 01:37:13;;;;;;;42.45;23.17;;;2.20;99.90;;;;;;5022001;28;20187;-81
2022/12/16 01:39:38;;;;;;;44.25;23.65;;;2.30;99.90;;;;;;5019736;28;20192;-81
2022/12/16 01:42:12;;;;;;;49.47;22.83;;;2.20;99.90;;;;;;5017058;28;20177;-82
2022/12/16 01:44:40;;;;;;;54.20;23.65;;;2.20;99.90;;;;;;5019428;28;20176;-82
2022/12/16 01:47:06;;;;;;;55.63;25.42;;;1.90;99.90;;;;;;5017973;28;20172;-82
2022/12/16 01:49:47;;;;;;;50.75;24.95;;;1.90;99.90;;;;;;5023617;28;20491;-84
2022/12/16 01:52:18;;;;;;;46.50;23.50;;;2.00;99.90;;;;;;5015812;28;20216;-78
2022/12/16 01:54:55;;;;;;;47.30;24.60;;;2.20;99.90;;;;;;5021183;28;20165;-81
2022/12/16 01:57:26;;;;;;;48.30;24.45;;;2.20;99.90;;;;;;5018911;28;20175;-79
2022/12/16 01:59:53;;;;;;;53.87;25.57;;;1.90;99.90;;;;;;5014138;28;20633;-78
2022/12/16 02:02:20;;;;;;;53.03;26.23;;;1.90;99.90;;;;;;5020238;28;20192;-85
2022/12/16 02:07:30;;;;;;;51.08;25.98;;;1.60;99.90;;;;;;5022163;28;20266;-84
2022/12/16 02:09:56;;;;;;;42.42;24.05;;;1.60;99.90;;;;;;5021703;28;20169;-78
2022/12/16 02:12:52;;;;;;;48.65;24.90;;;1.40;99.90;;;;;;5021034;28;20287;-78
2022/12/16 02:15:33;;;;;;;50.30;25.42;;;1.20;99.90;;;;;;5020466;28;20251;-79
2022/12/16 02:18:07;;;;;;;52.30;23.60;;;1.40;99.90;;;;;;5022731;28;20176;-78
2022/12/16 02:20:38;;;;;;;41.55;23.63;;;1.40;99.90;;;;;;5022301;28;20207;-78
2022/12/16 02:23:03;;;;;;;47.75;24.35;;;1.40;99.90;;;;;;5017886;28;20193;-80
2022/12/16 02:25:42;;;;;;;47.92;24.83;;;1.30;99.90;;;;;;5023204;28;20189;-80
2022/12/16 02:28:12;;;;;;;49.20;23.23;;;1.40;99.90;;;;;;5025214;28;20169;-78
2022/12/16 02:31:06;;;;;;;44.33;25.05;;;1.30;99.90;;;;;;5019443;28;20236;-78
2022/12/16 02:33:53;;;;;;;48.10;23.63;;;1.50;99.90;;;;;;5017659;28;20233;-78
2022/12/16 02:36:29;;;;;;;40.35;22.67;;;1.50;99.90;;;;;;5017096;28;20207;-78
2022/12/16 02:38:57;;;;;;;48.90;23.15;;;1.50;99.90;;;;;;5019501;28;20279;-78
2022/12/16 02:41:28;;;;;;;58.25;23.77;;;1.80;99.90;;;;;;5022539;28;20184;-83
2022/12/16 02:44:02;;;;;;;52.80;24.05;;;1.70;99.90;;;;;;5021926;28;20168;-78
2022/12/16 02:46:31;;;;;;;47.75;23.80;;;1.70;99.90;;;;;;5017793;28;20176;-85
2022/12/16 02:49:25;;;;;;;41.92;22.83;;;1.80;99.90;;;;;;5019359;28;20176;-86
2022/12/16 02:51:51;;;;;;;49.85;22.48;;;1.70;99.90;;;;;;5019800;28;20216;-77
2022/12/16 02:54:18;;;;;;;44.95;23.67;;;1.70;99.90;;;;;;5018048;28;20251;-81
2022/12/16 02:57:02;;;;;;;45.25;22.83;;;1.80;99.90;;;;;;5021148;28;20168;-80
2022/12/16 02:59:54;;;;;;;44.35;21.80;;;1.90;99.90;;;;;;5022931;28;20625;-78
2022/12/16 03:02:38;;;;;;;41.70;22.48;;;2.10;99.90;;;;;;5017844;28;20275;-83
2022/12/16 03:05:25;;;;;;;47.83;22.30;;;2.20;99.90;;;;;;5015065;28;20169;-76
2022/12/16 03:07:52;;;;;;;49.55;22.95;;;2.50;99.90;;;;;;5014277;28;20259;-77
2022/12/16 03:10:23;;;;;;;48.00;21.65;;;2.70;99.90;;;;;;5014243;28;20219;-78
2022/12/16 03:12:49;;;;;;;49.83;22.65;;;2.40;99.90;;;;;;5014219;28;20241;-78
2022/12/16 03:15:22;;;;;;;47.97;23.55;;;2.40;99.90;;;;;;5014730;28;20177;-77
2022/12/16 03:17:50;;;;;;;38.80;21.73;;;2.20;99.90;;;;;;5019574;28;20200;-80
2022/12/16 03:20:22;;;;;;;44.80;21.35;;;2.20;99.90;;;;;;5022597;28;20165;-77
2022/12/16 03:22:51;;;;;;;51.45;23.40;;;2.30;99.90;;;;;;5021645;28;20660;-86
2022/12/16 03:25:20;;;;;;;45.65;21.40;;;2.40;99.90;;;;;;5015156;28;20168;-89
2022/12/16 03:28:02;;;;;;;36.83;20.73;;;2.50;99.90;;;;;;5014687;28;20167;-77
2022/12/16 03:30:35;;;;;;;45.47;21.55;;;2.10;99.90;;;;;;5014841;28;20196;-79
2022/12/16 03:33:26;;;;;;;52.63;23.05;;;2.10;99.90;;;;;;5014280;28;20271;-77
2022/12/16 03:36:05;;;;;;;45.88;22.65;;;2.00;99.90;;;;;;5014289;28;20643;-77
2022/12/16 03:38:33;;;;;;;38.38;22.13;;;2.20;99.90;;;;;;5012962;28;20176;-81
2022/12/16 03:41:01;;;;;;;52.97;23.35;;;2.50;99.90;;;;;;5014322;28;20171;-86
2022/12/16 03:43:27;;;;;;;51.22;21.20;;;2.50;99.90;;;;;;5014517;28;20164;-79
2022/12/16 03:45:59;;;;;;;46.90;22.15;;;2.40;99.90;;;;;;5015648;28;20597;-82
2022/12/16 03:48:25;;;;;;;34.20;19.38;;;2.40;99.90;;;;;;5016238;28;20152;-77
2022/12/16 03:50:51;;;;;;;35.22;20.30;;;2.30;99.90;;;;;;5023040;28;20276;-77
2022/12/16 03:53:17;;;;;;;51.90;21.90;;;2.40;99.90;;;;;;5021136;28;20173;-78
2022/12/16 03:55:43;;;;;;;39.80;21.45;;;2.30;99.90;;;;;;5014038;28;20180;-88
2022/12/16 03:58:09;;;;;;;48.28;21.58;;;2.30;99.90;;;;;;5022183;28;20637;-77
2022/12/16 04:00:36;;;;;;;46.22;21.55;;;2.60;99.90;;;;;;5017871;28;20247;-77
2022/12/16 04:03:02;;;;;;;53.05;22.48;;;2.80;99.90;;;;;;5017834;28;20312;-77
2022/12/16 04:05:27;;;;;;;42.53;21.05;;;2.80;99.90;;;;;;5019696;28;20592;-78
2022/12/16 04:07:54;;;;;;;49.65;21.02;;;2.70;99.90;;;;;;5019332;28;20176;-86
2022/12/16 04:24:19;;;;;;;46.95;22.27;;;2.40;99.90;;;;;;5016247;28;20192;-78
2022/12/16 04:30:17;;;;;;;51.30;24.13;;;2.70;99.90;;;;;;5016473;28;20706;-78
2022/12/16 04:32:19;;;;;;;54.10;23.13;;;2.70;99.90;;;;;;5017328;28;20212;-79
2022/12/16 04:34:45;;;;;;;60.40;24.98;;;2.80;99.90;;;;;;5014649;28;20657;-77
